CheckWX is a tool to help pilots better visualize weather data.  It is not intended as a substitute for an official pre-flight weather briefing.

15:30:28 UTC

KAUN METAR
Auburn Municipal Airport
Auburn, California, USA
Current

15 mins ago

KAUN 171515Z AUTO 14003KT 8SM FEW006 SCT022 BKN034 13/12 A2991 RMK A01
Observed
Oct-17 @ 15:15 UTC
Wind
  • 140° at 3 KTS
Visibility
8 SM
Flight Rules
VFR
Cloud Levels
  • Few at 600' AGL
  • Scattered at 2,200' AGL
  • Broken at 3,400' AGL
Temperature
13°C / 55°F
Dewpoint
12°C / 54°F
Humidity
94%
Altimeter
29.91" Hg
Pressure
1012.92 hPa
Previous

35 mins ago

KAUN 171455Z AUTO 00000KT 9SM BKN034 OVC050 13/12 A2991 RMK A01
Observed
Oct-17 @ 14:55 UTC
Visibility
9 SM
Flight Rules
VFR
Cloud Levels
  • Broken at 3,400' AGL
  • Overcast at 5,000' AGL
Temperature
13°C / 55°F
Dewpoint
12°C / 54°F
Humidity
94%
Altimeter
29.91" Hg
Pressure
1012.92 hPa
Previous

55 mins ago

KAUN 171435Z AUTO 00000KT 8SM FEW006 BKN035 OVC065 12/12 A2990 RMK A01
Observed
Oct-17 @ 14:35 UTC
Visibility
8 SM
Flight Rules
VFR
Cloud Levels
  • Few at 600' AGL
  • Broken at 3,500' AGL
  • Overcast at 6,500' AGL
Temperature
12°C / 54°F
Dewpoint
12°C / 54°F
Humidity
100%
Altimeter
29.9" Hg
Pressure
1012.52 hPa